createdAt,value
2023-12-12T00:00:10.918Z,100.00
2023-12-12T00:02:37.547Z,100.00
2023-12-12T00:05:04.752Z,100.00
2023-12-12T00:07:31.676Z,100.00
2023-12-12T00:09:58.671Z,100.00
2023-12-12T00:12:25.489Z,100.00
2023-12-12T00:14:52.120Z,100.00
2023-12-12T00:17:18.982Z,100.00
2023-12-12T00:19:45.874Z,100.00
2023-12-12T00:22:13.007Z,99.49
2023-12-12T00:24:39.719Z,100.00
2023-12-12T00:27:06.523Z,100.00
2023-12-12T00:29:36.999Z,100.00
2023-12-12T00:32:04.270Z,100.00
2023-12-12T00:34:31.568Z,100.00
2023-12-12T00:36:58.414Z,100.00
2023-12-12T00:39:27.969Z,100.00
2023-12-12T00:41:56.009Z,100.00
2023-12-12T00:44:22.706Z,99.17
2023-12-12T00:46:49.552Z,98.78
2023-12-12T00:49:16.489Z,97.73
2023-12-12T00:51:43.314Z,98.40
2023-12-12T00:54:10.038Z,98.49
2023-12-12T00:56:36.750Z,98.00
2023-12-12T00:59:03.630Z,97.84
2023-12-12T01:01:30.451Z,98.16
2023-12-12T01:03:57.353Z,97.93
2023-12-12T01:06:28.874Z,96.53
2023-12-12T01:08:56.666Z,97.87
2023-12-12T01:11:23.481Z,98.15
2023-12-12T01:13:50.215Z,98.33
2023-12-12T01:16:17.031Z,97.41
2023-12-12T01:18:43.872Z,97.54
2023-12-12T01:21:10.820Z,96.83
2023-12-12T01:23:54.081Z,96.62
2023-12-12T01:26:23.162Z,96.15
2023-12-12T01:28:51.007Z,95.77
2023-12-12T01:31:19.355Z,95.42
2023-12-12T01:33:46.691Z,96.18
2023-12-12T01:36:13.716Z,95.89
2023-12-12T01:38:40.506Z,95.99
2023-12-12T01:41:07.397Z,95.16
2023-12-12T01:43:34.758Z,94.89
2023-12-12T01:46:03.645Z,95.41
2023-12-12T01:48:32.691Z,94.93
2023-12-12T01:51:00.995Z,94.66
2023-12-12T01:53:40.581Z,94.39
2023-12-12T01:56:08.022Z,98.81
2023-12-12T01:58:37.106Z,100.00
2023-12-12T02:01:04.961Z,100.00
2023-12-12T02:03:32.786Z,100.00
2023-12-12T02:06:00.529Z,100.00
2023-12-12T02:08:27.567Z,100.00
2023-12-12T02:10:55.087Z,100.00
2023-12-12T02:13:22.272Z,100.00
2023-12-12T02:15:49.602Z,99.74
2023-12-12T02:18:16.496Z,99.24
2023-12-12T02:20:44.314Z,97.84
2023-12-12T02:23:11.269Z,96.35
2023-12-12T02:25:39.417Z,94.42
2023-12-12T02:28:07.925Z,94.22
2023-12-12T02:30:36.511Z,93.53
2023-12-12T02:33:05.358Z,92.96
2023-12-12T02:35:32.562Z,92.04
2023-12-12T02:37:59.465Z,91.49
2023-12-12T02:40:26.497Z,91.88
2023-12-12T02:42:54.035Z,92.64
2023-12-12T02:45:20.915Z,92.42
2023-12-12T02:47:47.704Z,91.84
2023-12-12T02:50:14.707Z,91.69
2023-12-12T02:52:41.598Z,91.47
2023-12-12T02:55:08.870Z,90.14
2023-12-12T02:57:35.710Z,93.38
2023-12-12T03:00:03.440Z,92.47
2023-12-12T03:02:30.396Z,96.28
2023-12-12T03:04:58.193Z,95.82
2023-12-12T03:07:25.624Z,98.11
2023-12-12T03:09:52.518Z,96.55
2023-12-12T03:12:19.397Z,98.88
2023-12-12T03:14:46.190Z,99.65
2023-12-12T03:17:13.044Z,100.00
2023-12-12T03:19:40.152Z,98.77
2023-12-12T03:22:07.187Z,97.28
2023-12-12T03:24:33.988Z,95.55
2023-12-12T03:27:00.766Z,94.94
2023-12-12T03:29:29.453Z,94.40
2023-12-12T03:31:56.870Z,95.68
2023-12-12T03:34:23.718Z,95.25
2023-12-12T03:36:50.902Z,94.48
2023-12-12T03:39:17.808Z,95.09
2023-12-12T03:41:45.094Z,94.46
2023-12-12T03:44:11.927Z,95.27
2023-12-12T03:46:38.621Z,95.17
2023-12-12T03:49:06.273Z,94.36
2023-12-12T03:51:33.124Z,93.63
2023-12-12T03:54:00.160Z,92.83
2023-12-12T03:56:27.056Z,93.04
2023-12-12T03:58:53.843Z,92.61
2023-12-12T04:01:21.082Z,93.31
2023-12-12T04:03:47.905Z,93.00
2023-12-12T04:06:15.001Z,92.01
2023-12-12T04:08:41.845Z,91.54
2023-12-12T04:11:09.026Z,95.30
2023-12-12T04:13:35.774Z,93.94
2023-12-12T04:16:02.543Z,95.37
2023-12-12T04:18:29.607Z,94.76
2023-12-12T04:20:56.516Z,93.59
2023-12-12T04:23:23.200Z,92.24
2023-12-12T04:25:50.116Z,94.82
2023-12-12T04:28:16.973Z,93.27
2023-12-12T04:30:43.795Z,92.11
2023-12-12T04:33:10.676Z,91.40
2023-12-12T04:35:37.566Z,92.01
2023-12-12T04:38:04.265Z,95.75
2023-12-12T04:40:31.409Z,95.34
2023-12-12T04:42:58.337Z,94.29
2023-12-12T04:45:25.145Z,94.73
2023-12-12T04:47:52.297Z,94.47
2023-12-12T04:50:19.355Z,94.63
2023-12-12T04:52:48.312Z,93.92
2023-12-12T04:55:15.387Z,92.86
2023-12-12T04:57:46.570Z,91.99
2023-12-12T05:00:17.064Z,91.85
2023-12-12T05:02:43.899Z,96.35
2023-12-12T05:05:10.774Z,97.12
2023-12-12T05:07:37.775Z,97.48
2023-12-12T05:10:05.560Z,99.44
2023-12-12T05:12:34.973Z,98.96
2023-12-12T05:15:03.609Z,97.31
2023-12-12T05:17:31.240Z,97.07
2023-12-12T05:20:00.864Z,100.00
2023-12-12T05:22:27.770Z,100.00
2023-12-12T05:24:57.659Z,99.92
2023-12-12T05:27:24.407Z,99.45
2023-12-12T05:29:51.486Z,99.48
2023-12-12T05:32:18.275Z,97.95
2023-12-12T05:34:45.070Z,96.98
2023-12-12T05:37:12.373Z,96.54
2023-12-12T05:39:39.352Z,96.10
2023-12-12T05:42:06.911Z,96.68
2023-12-12T05:44:33.698Z,97.03
2023-12-12T05:47:00.571Z,96.45
2023-12-12T05:49:27.781Z,96.83
2023-12-12T05:51:54.931Z,97.39
2023-12-12T05:54:24.955Z,97.04
2023-12-12T05:56:53.333Z,97.19
2023-12-12T05:59:20.205Z,97.90
2023-12-12T06:01:46.990Z,97.50
2023-12-12T06:04:14.611Z,96.84
2023-12-12T06:06:43.615Z,96.54
2023-12-12T06:09:14.654Z,95.81
2023-12-12T06:11:43.439Z,97.74
2023-12-12T06:14:10.715Z,97.10
2023-12-12T06:16:39.312Z,99.91
2023-12-12T06:19:06.936Z,100.00
2023-12-12T06:21:34.872Z,98.42
2023-12-12T06:24:03.594Z,96.70
2023-12-12T06:26:31.341Z,95.98
2023-12-12T06:28:58.106Z,94.74
2023-12-12T06:31:25.134Z,93.83
2023-12-12T06:33:53.777Z,93.62
2023-12-12T06:36:21.013Z,93.17
2023-12-12T06:38:47.811Z,93.42
2023-12-12T06:41:14.585Z,98.36
2023-12-12T06:43:41.304Z,98.80
2023-12-12T06:46:09.462Z,100.00
2023-12-12T06:48:38.420Z,100.00
2023-12-12T06:51:06.357Z,100.00
2023-12-12T06:53:33.701Z,100.00
2023-12-12T06:56:00.524Z,99.13
2023-12-12T06:58:27.382Z,97.95
2023-12-12T07:00:54.244Z,96.29
2023-12-12T07:03:21.088Z,95.20
2023-12-12T07:05:48.209Z,93.69
2023-12-12T07:08:15.230Z,94.19
2023-12-12T07:10:42.655Z,94.96
2023-12-12T07:13:09.517Z,96.55
2023-12-12T07:15:36.437Z,98.08
2023-12-12T07:18:03.280Z,98.40
2023-12-12T07:20:30.059Z,100.00
2023-12-12T07:22:57.004Z,100.00
2023-12-12T07:25:24.058Z,100.00
2023-12-12T07:27:51.926Z,100.00
2023-12-12T07:30:18.967Z,100.00
2023-12-12T07:32:46.046Z,100.00
2023-12-12T07:35:12.872Z,98.94
2023-12-12T07:37:39.843Z,98.19
2023-12-12T07:40:07.759Z,97.59
2023-12-12T07:42:34.592Z,97.65
2023-12-12T07:45:01.381Z,96.16
2023-12-12T07:47:34.371Z,96.00
2023-12-12T07:50:10.014Z,96.13
2023-12-12T07:52:37.624Z,95.73
2023-12-12T07:55:04.916Z,94.31
2023-12-12T07:57:32.980Z,93.35
2023-12-12T07:59:59.913Z,93.37
2023-12-12T08:02:26.761Z,96.38
2023-12-12T08:04:53.591Z,96.14
2023-12-12T08:07:21.541Z,95.81
2023-12-12T08:09:48.349Z,99.48
2023-12-12T08:12:15.128Z,100.00
2023-12-12T08:14:44.077Z,100.00
2023-12-12T08:17:12.083Z,100.00
2023-12-12T08:19:39.678Z,99.94
2023-12-12T08:22:06.558Z,100.00
2023-12-12T08:24:33.311Z,100.00
2023-12-12T08:27:00.286Z,100.00
2023-12-12T08:29:29.259Z,100.00
2023-12-12T08:31:56.935Z,100.00
2023-12-12T08:34:24.999Z,100.00
2023-12-12T08:36:51.856Z,100.00
2023-12-12T08:39:18.657Z,100.00
2023-12-12T08:41:45.890Z,99.62
2023-12-12T08:44:12.642Z,96.02
2023-12-12T08:46:39.461Z,95.15
2023-12-12T08:49:06.568Z,94.12
2023-12-12T08:51:34.426Z,94.25
2023-12-12T08:54:02.425Z,96.45
2023-12-12T08:56:29.316Z,96.38
2023-12-12T08:58:56.348Z,95.77
2023-12-12T09:01:26.565Z,93.69
2023-12-12T09:03:54.710Z,95.33
2023-12-12T09:06:21.933Z,97.05
2023-12-12T09:08:49.219Z,100.00
2023-12-12T09:11:16.156Z,100.00
2023-12-12T09:13:46.157Z,100.00
2023-12-12T09:16:13.189Z,100.00
2023-12-12T09:18:40.043Z,100.00
2023-12-12T09:21:08.219Z,100.00
2023-12-12T09:23:35.956Z,100.00
2023-12-12T09:26:03.050Z,100.00
2023-12-12T09:28:29.857Z,100.00
2023-12-12T09:30:56.987Z,100.00
2023-12-12T09:33:24.332Z,100.00
2023-12-12T09:35:51.477Z,100.00
2023-12-12T09:38:18.289Z,100.00
2023-12-12T09:40:45.245Z,100.00
2023-12-12T09:43:13.666Z,100.00
2023-12-12T09:45:47.122Z,100.00
2023-12-12T09:48:15.562Z,100.00
2023-12-12T09:50:48.505Z,100.00
2023-12-12T09:53:15.750Z,100.00
2023-12-12T09:55:42.694Z,100.00
2023-12-12T09:58:09.675Z,100.00
2023-12-12T10:00:36.535Z,100.00
2023-12-12T10:03:06.848Z,100.00
2023-12-12T10:05:39.442Z,100.00
2023-12-12T10:08:14.086Z,100.00
2023-12-12T10:10:43.176Z,100.00
2023-12-12T10:13:10.280Z,100.00
2023-12-12T10:15:37.109Z,100.00
2023-12-12T10:18:04.042Z,100.00
2023-12-12T10:20:32.468Z,100.00
2023-12-12T10:23:01.321Z,98.73
2023-12-12T10:25:33.306Z,96.26
2023-12-12T10:28:00.944Z,95.56
2023-12-12T10:30:28.523Z,96.65
2023-12-12T10:32:56.910Z,98.61
2023-12-12T10:35:25.556Z,98.49
2023-12-12T10:37:54.362Z,97.00
2023-12-12T10:40:23.928Z,96.03
2023-12-12T10:42:54.918Z,94.01
2023-12-12T10:45:22.319Z,92.63
2023-12-12T10:47:54.755Z,92.48
2023-12-12T10:50:21.645Z,92.34
2023-12-12T10:52:50.966Z,91.09
2023-12-12T10:55:21.292Z,91.30
2023-12-12T10:57:49.296Z,88.44
2023-12-12T11:00:19.649Z,86.14
2023-12-12T11:02:49.083Z,84.16
2023-12-12T11:05:16.805Z,84.21
2023-12-12T11:07:49.791Z,80.92
2023-12-12T11:10:20.676Z,80.20
2023-12-12T11:12:54.762Z,81.02
2023-12-12T11:15:25.076Z,80.52
2023-12-12T11:17:53.564Z,76.48
2023-12-12T11:20:21.405Z,74.01
2023-12-12T11:22:50.073Z,73.71
2023-12-12T11:25:21.392Z,70.55
2023-12-12T11:27:52.219Z,70.12
2023-12-12T11:30:20.772Z,69.83
2023-12-12T11:32:48.804Z,72.93
2023-12-12T11:35:33.766Z,68.88
2023-12-12T11:38:04.548Z,66.87
2023-12-12T11:40:33.537Z,64.52
2023-12-12T11:43:20.266Z,62.26
2023-12-12T11:45:47.796Z,60.54
2023-12-12T11:48:15.196Z,58.52
2023-12-12T11:50:43.043Z,59.88
2023-12-12T11:53:10.288Z,59.06
2023-12-12T11:55:44.435Z,55.38
2023-12-12T11:58:13.534Z,55.10
2023-12-12T12:00:44.548Z,57.46
2023-12-12T12:03:11.513Z,57.66
2023-12-12T12:05:38.807Z,56.52
2023-12-12T12:08:06.980Z,55.04
2023-12-12T12:10:34.276Z,54.36
2023-12-12T12:13:02.076Z,52.62
2023-12-12T12:15:29.699Z,50.55
2023-12-12T12:17:58.340Z,49.40
2023-12-12T12:20:25.278Z,50.61
2023-12-12T12:22:53.015Z,51.56
2023-12-12T12:25:24.488Z,51.31
2023-12-12T12:27:53.929Z,50.53
2023-12-12T12:30:21.681Z,49.12
2023-12-12T12:33:18.164Z,49.12
2023-12-12T12:35:52.972Z,47.44
2023-12-12T12:38:27.280Z,45.71
2023-12-12T12:40:54.492Z,47.24
2023-12-12T12:43:24.374Z,48.30
2023-12-12T12:45:52.242Z,49.71
2023-12-12T12:48:21.034Z,49.96
2023-12-12T12:50:51.073Z,53.44
2023-12-12T12:53:18.504Z,53.41
2023-12-12T12:55:46.108Z,57.15
2023-12-12T12:58:14.392Z,56.83
2023-12-12T13:00:45.817Z,58.93
2023-12-12T13:03:14.411Z,59.87
2023-12-12T13:05:41.838Z,60.41
2023-12-12T13:08:08.810Z,60.01
2023-12-12T13:10:46.675Z,60.46
2023-12-12T13:13:17.879Z,61.90
2023-12-12T13:15:44.916Z,61.74
2023-12-12T13:18:11.813Z,62.27
2023-12-12T13:20:38.550Z,62.76
2023-12-12T13:23:05.255Z,64.54
2023-12-12T13:25:32.799Z,64.48
2023-12-12T13:27:59.897Z,64.36
2023-12-12T13:30:26.982Z,66.38
2023-12-12T13:32:54.003Z,65.56
2023-12-12T13:35:33.934Z,65.64
2023-12-12T13:38:04.744Z,65.35
2023-12-12T13:40:32.726Z,64.96
2023-12-12T13:43:00.079Z,64.86
2023-12-12T13:45:26.926Z,64.81
2023-12-12T13:47:53.775Z,64.75
2023-12-12T13:50:20.800Z,64.32
2023-12-12T13:52:47.867Z,64.23
2023-12-12T13:55:14.786Z,64.54
2023-12-12T13:57:41.589Z,65.20
2023-12-12T14:00:10.961Z,64.51
2023-12-12T14:02:38.592Z,64.96
2023-12-12T14:05:06.384Z,64.75
2023-12-12T14:07:33.451Z,65.06
2023-12-12T14:10:00.397Z,65.44
2023-12-12T14:12:27.386Z,65.05
2023-12-12T14:14:55.058Z,66.05
2023-12-12T14:17:22.005Z,65.65
2023-12-12T14:19:49.122Z,66.40
2023-12-12T14:22:16.004Z,66.20
2023-12-12T14:24:43.015Z,66.16
2023-12-12T14:27:09.793Z,65.94
2023-12-12T14:29:36.914Z,66.34
2023-12-12T14:32:03.936Z,66.26
2023-12-12T14:34:30.999Z,66.86
2023-12-12T14:36:58.254Z,67.22
2023-12-12T14:39:24.961Z,66.94
2023-12-12T14:41:51.733Z,67.92
2023-12-12T14:44:18.621Z,69.10
2023-12-12T14:46:45.798Z,71.12
2023-12-12T14:49:13.032Z,70.55
2023-12-12T14:51:39.821Z,70.25
2023-12-12T14:54:06.974Z,70.00
2023-12-12T14:56:36.644Z,70.40
2023-12-12T14:59:05.666Z,69.96
2023-12-12T15:01:32.816Z,70.16
2023-12-12T15:03:59.921Z,70.13
2023-12-12T15:06:28.234Z,70.35
2023-12-12T15:08:55.163Z,70.23
2023-12-12T15:11:22.195Z,72.73
2023-12-12T15:13:49.067Z,75.73
2023-12-12T15:16:16.179Z,76.10
2023-12-12T15:18:42.960Z,75.23
2023-12-12T15:21:13.576Z,74.74
2023-12-12T15:23:41.560Z,73.91
2023-12-12T15:26:08.553Z,74.88
2023-12-12T15:28:35.635Z,75.30
2023-12-12T15:31:02.868Z,74.91
2023-12-12T15:33:33.343Z,74.67
2023-12-12T15:36:06.511Z,75.32
2023-12-12T15:38:33.517Z,79.43
2023-12-12T15:41:00.249Z,81.97
2023-12-12T15:43:27.227Z,82.79
2023-12-12T15:45:54.160Z,83.35
2023-12-12T15:48:21.251Z,85.47
2023-12-12T15:50:48.199Z,85.66
2023-12-12T15:53:15.206Z,84.81
2023-12-12T15:55:42.423Z,83.28
2023-12-12T15:58:11.601Z,84.82
2023-12-12T16:00:38.485Z,86.93
2023-12-12T16:03:05.444Z,86.85
2023-12-12T16:05:34.462Z,87.23
2023-12-12T16:08:03.713Z,88.53
2023-12-12T16:10:30.607Z,90.04
2023-12-12T16:12:57.471Z,91.19
2023-12-12T16:15:24.187Z,90.79
2023-12-12T16:17:51.137Z,88.84
2023-12-12T16:20:18.085Z,86.79
2023-12-12T16:22:45.048Z,83.84
2023-12-12T16:25:13.090Z,83.16
2023-12-12T16:27:43.828Z,82.04
2023-12-12T16:30:11.235Z,80.77
2023-12-12T16:32:38.099Z,80.18
2023-12-12T16:35:05.404Z,78.83
2023-12-12T16:37:32.422Z,78.50
2023-12-12T16:39:59.490Z,77.43
2023-12-12T16:42:28.837Z,76.75
2023-12-12T16:44:57.061Z,75.94
2023-12-12T16:47:26.524Z,75.09
2023-12-12T16:49:53.545Z,74.34
2023-12-12T16:52:20.432Z,73.83
2023-12-12T16:54:47.685Z,73.10
2023-12-12T16:57:14.529Z,72.25
2023-12-12T16:59:41.272Z,72.93
2023-12-12T17:02:08.221Z,72.13
2023-12-12T17:04:35.242Z,71.89
2023-12-12T17:07:04.828Z,71.51
2023-12-12T17:09:31.877Z,71.61
2023-12-12T17:11:58.780Z,72.74
2023-12-12T17:14:25.620Z,72.87
2023-12-12T17:16:52.402Z,72.89
2023-12-12T17:19:23.330Z,72.34
2023-12-12T17:21:53.130Z,72.17
2023-12-12T17:24:20.169Z,72.71
2023-12-12T17:26:47.641Z,72.37
2023-12-12T17:29:17.105Z,71.43
2023-12-12T17:31:45.841Z,72.40
2023-12-12T17:34:13.160Z,72.21
2023-12-12T17:36:40.219Z,72.46
2023-12-12T17:39:07.385Z,73.39
2023-12-12T17:41:34.034Z,73.97
2023-12-12T17:44:00.869Z,73.72
2023-12-12T17:46:27.728Z,74.28
2023-12-12T17:48:54.470Z,75.11
2023-12-12T17:51:21.467Z,76.71
2023-12-12T17:53:48.217Z,76.33
2023-12-12T17:56:15.356Z,78.20
2023-12-12T17:58:42.303Z,77.77
2023-12-12T18:01:09.391Z,77.79
2023-12-12T18:03:36.222Z,79.25
2023-12-12T18:06:03.328Z,78.79
2023-12-12T18:08:30.081Z,79.48
2023-12-12T18:10:57.004Z,80.81
2023-12-12T18:13:24.196Z,81.53
2023-12-12T18:15:50.972Z,80.78
2023-12-12T18:18:18.395Z,80.56
2023-12-12T18:20:45.307Z,81.34
2023-12-12T18:23:12.248Z,82.29
2023-12-12T18:25:42.006Z,83.56
2023-12-12T18:28:10.334Z,83.12
2023-12-12T18:30:49.871Z,82.32
2023-12-12T18:33:18.521Z,83.17
2023-12-12T18:35:45.443Z,82.24
2023-12-12T18:38:12.368Z,81.67
2023-12-12T18:40:40.265Z,81.71
2023-12-12T18:43:07.294Z,82.34
2023-12-12T18:45:34.316Z,82.64
2023-12-12T18:48:01.314Z,83.76
2023-12-12T18:50:29.670Z,83.27
2023-12-12T18:52:57.622Z,83.25
2023-12-12T18:55:25.651Z,84.35
2023-12-12T18:57:53.053Z,83.44
2023-12-12T19:00:19.842Z,84.13
2023-12-12T19:02:46.766Z,84.64
2023-12-12T19:05:17.125Z,84.35
2023-12-12T19:07:45.239Z,83.81
2023-12-12T19:10:13.164Z,82.89
2023-12-12T19:12:44.518Z,82.90
2023-12-12T19:15:17.522Z,83.29
2023-12-12T19:17:48.131Z,84.61
2023-12-12T19:20:15.354Z,84.72
2023-12-12T19:22:42.193Z,85.33
2023-12-12T19:25:15.161Z,85.60
2023-12-12T19:27:42.179Z,85.81
2023-12-12T19:30:10.936Z,84.71
2023-12-12T19:32:40.050Z,85.44
2023-12-12T19:35:10.053Z,85.56
2023-12-12T19:37:38.477Z,86.39
2023-12-12T19:40:09.161Z,88.56
2023-12-12T19:42:36.363Z,87.59
2023-12-12T19:45:04.465Z,88.10
2023-12-12T19:47:32.238Z,87.96
2023-12-12T19:50:02.368Z,87.39
2023-12-12T19:52:32.800Z,87.29
2023-12-12T19:55:00.784Z,86.45
2023-12-12T19:57:27.536Z,86.83
2023-12-12T19:59:54.351Z,86.79
2023-12-12T20:02:21.252Z,86.99
2023-12-12T20:04:48.024Z,87.13
2023-12-12T20:07:15.030Z,88.20
2023-12-12T20:09:43.044Z,88.64
2023-12-12T20:12:11.255Z,88.79
2023-12-12T20:14:38.901Z,89.60
2023-12-12T20:17:06.728Z,89.81
2023-12-12T20:19:34.090Z,89.61
2023-12-12T20:22:01.060Z,88.79
2023-12-12T20:24:29.599Z,88.81
2023-12-12T20:26:56.405Z,89.70
2023-12-12T20:29:23.765Z,89.63
2023-12-12T20:31:50.752Z,89.64
2023-12-12T20:34:17.818Z,89.62
2023-12-12T20:36:44.764Z,89.64
2023-12-12T20:39:13.885Z,89.69
2023-12-12T20:41:44.821Z,91.17
2023-12-12T20:44:11.856Z,91.92
2023-12-12T20:46:42.681Z,93.16
2023-12-12T20:49:10.050Z,92.13
2023-12-12T20:51:39.798Z,92.48
2023-12-12T20:54:06.650Z,92.12
2023-12-12T20:56:35.124Z,92.15
2023-12-12T20:59:01.818Z,91.80
2023-12-12T21:01:28.778Z,92.03
2023-12-12T21:03:55.967Z,91.43
2023-12-12T21:06:22.734Z,90.86
2023-12-12T21:08:49.742Z,90.42
2023-12-12T21:11:16.511Z,91.91
2023-12-12T21:13:45.700Z,90.78
2023-12-12T21:16:18.653Z,89.95
2023-12-12T21:18:46.617Z,90.37
2023-12-12T21:21:13.584Z,90.32
2023-12-12T21:23:41.655Z,89.87
2023-12-12T21:26:09.104Z,90.91
2023-12-12T21:28:39.395Z,91.35
2023-12-12T21:31:07.699Z,90.65
2023-12-12T21:33:34.707Z,89.60
2023-12-12T21:36:01.921Z,88.70
2023-12-12T21:38:29.532Z,87.23
2023-12-12T21:40:56.949Z,87.98
2023-12-12T21:43:23.985Z,88.01
2023-12-12T21:45:50.965Z,87.81
2023-12-12T21:48:17.985Z,87.47
2023-12-12T21:50:45.666Z,88.39
2023-12-12T21:53:15.321Z,88.77
2023-12-12T21:55:42.157Z,90.40
2023-12-12T21:58:10.147Z,90.81
2023-12-12T22:00:36.906Z,90.79
2023-12-12T22:03:03.791Z,91.94
2023-12-12T22:05:30.507Z,94.12
2023-12-12T22:07:57.390Z,96.21
2023-12-12T22:10:24.539Z,96.39
2023-12-12T22:12:51.283Z,95.69
2023-12-12T22:15:17.940Z,95.33
2023-12-12T22:17:44.910Z,94.14
2023-12-12T22:20:12.434Z,93.29
2023-12-12T22:22:40.728Z,92.09
2023-12-12T22:25:11.723Z,91.18
2023-12-12T22:27:38.605Z,91.19
2023-12-12T22:30:06.601Z,91.05
2023-12-12T22:32:34.167Z,93.02
2023-12-12T22:35:01.162Z,93.49
2023-12-12T22:37:27.982Z,93.28
2023-12-12T22:39:54.884Z,93.57
2023-12-12T22:42:21.588Z,93.35
2023-12-12T22:44:48.454Z,92.59
2023-12-12T22:47:15.318Z,92.31
2023-12-12T22:49:42.057Z,93.92
2023-12-12T22:52:09.450Z,92.88
2023-12-12T22:54:36.434Z,92.08
2023-12-12T22:57:03.369Z,91.97
2023-12-12T22:59:30.157Z,91.48
2023-12-12T23:01:57.246Z,92.41
2023-12-12T23:04:24.692Z,91.71
2023-12-12T23:06:52.460Z,92.21
2023-12-12T23:09:23.292Z,92.12
2023-12-12T23:11:50.493Z,92.25
2023-12-12T23:14:17.518Z,92.05
2023-12-12T23:16:44.331Z,91.67
2023-12-12T23:19:11.367Z,91.34
2023-12-12T23:21:38.184Z,90.66
2023-12-12T23:24:05.951Z,91.21
2023-12-12T23:26:32.827Z,90.95
2023-12-12T23:29:00.045Z,91.01
2023-12-12T23:31:26.867Z,90.98
2023-12-12T23:33:54.091Z,90.22
2023-12-12T23:36:20.823Z,90.27
2023-12-12T23:38:47.551Z,89.98
2023-12-12T23:41:14.359Z,88.84
2023-12-12T23:43:41.190Z,88.30
2023-12-12T23:46:08.041Z,88.47
2023-12-12T23:48:38.121Z,87.71
2023-12-12T23:51:05.322Z,88.41
2023-12-12T23:53:34.720Z,89.50
2023-12-12T23:56:02.565Z,90.67
2023-12-12T23:58:29.537Z,89.92
